createdAt,value
2024-01-24T00:00:33.609Z,278.07
2024-01-24T00:03:01.759Z,284.73
2024-01-24T00:05:30.713Z,276.97
2024-01-24T00:07:58.628Z,270.50
2024-01-24T00:10:27.811Z,343.10
2024-01-24T00:12:57.481Z,242.60
2024-01-24T00:15:25.525Z,221.97
2024-01-24T00:17:53.634Z,237.67
2024-01-24T00:20:21.578Z,197.73
2024-01-24T00:22:49.763Z,155.50
2024-01-24T00:25:17.693Z,186.50
2024-01-24T00:27:46.955Z,168.03
2024-01-24T00:30:15.099Z,151.53
2024-01-24T00:32:43.097Z,161.83
2024-01-24T00:35:11.053Z,268.80
2024-01-24T00:37:38.900Z,166.83
2024-01-24T00:40:07.893Z,167.73
2024-01-24T00:42:35.777Z,181.37
2024-01-24T00:45:05.470Z,222.77
2024-01-24T00:47:33.337Z,195.53
2024-01-24T00:50:01.193Z,193.47
2024-01-24T00:52:29.204Z,160.57
2024-01-24T00:54:57.057Z,156.63
2024-01-24T00:57:24.983Z,174.63
2024-01-24T00:59:53.013Z,161.03
2024-01-24T01:02:22.173Z,147.33
2024-01-24T01:04:51.437Z,159.17
2024-01-24T01:07:19.341Z,182.10
2024-01-24T01:09:47.236Z,237.87
2024-01-24T01:12:15.183Z,268.50
2024-01-24T01:14:43.135Z,767.07
2024-01-24T01:17:11.039Z,759.90
2024-01-24T01:19:40.240Z,276.23
2024-01-24T01:22:08.245Z,764.60
2024-01-24T01:24:36.437Z,783.77
2024-01-24T01:27:04.673Z,763.10
2024-01-24T01:29:32.505Z,773.70
2024-01-24T01:32:00.344Z,748.90
2024-01-24T01:34:28.448Z,755.50
2024-01-24T01:36:57.833Z,768.37
2024-01-24T01:39:26.125Z,797.97
2024-01-24T01:41:54.715Z,776.70
2024-01-24T01:44:22.624Z,766.57
2024-01-24T01:46:52.491Z,753.97
2024-01-24T01:49:22.759Z,783.97
2024-01-24T01:51:53.408Z,775.30
2024-01-24T01:54:22.995Z,796.17
2024-01-24T01:56:51.061Z,778.63
2024-01-24T01:59:19.010Z,768.57
2024-01-24T02:01:47.491Z,755.07
2024-01-24T02:04:16.031Z,752.47
2024-01-24T02:06:44.008Z,761.63
2024-01-24T02:09:12.917Z,751.53
2024-01-24T02:11:42.736Z,748.37
2024-01-24T02:14:12.186Z,745.60
2024-01-24T02:16:40.163Z,753.10
2024-01-24T02:19:08.540Z,756.07
2024-01-24T02:21:36.512Z,742.00
2024-01-24T02:24:04.891Z,761.23
2024-01-24T02:26:34.212Z,759.07
2024-01-24T02:29:02.055Z,999.90
2024-01-24T02:31:30.015Z,999.90
2024-01-24T02:33:58.023Z,999.90
2024-01-24T02:36:25.981Z,999.90
2024-01-24T02:38:55.610Z,999.90
2024-01-24T02:41:24.938Z,999.90
2024-01-24T02:43:54.486Z,999.90
2024-01-24T02:46:22.395Z,999.90
2024-01-24T02:48:50.530Z,999.90
2024-01-24T02:51:25.565Z,570.50
2024-01-24T02:53:54.315Z,999.90
2024-01-24T02:56:22.514Z,568.80
2024-01-24T02:58:50.639Z,999.90
2024-01-24T03:01:20.020Z,999.90
2024-01-24T03:03:48.356Z,999.90
2024-01-24T03:06:16.869Z,773.90
2024-01-24T03:08:49.223Z,999.90
2024-01-24T03:11:17.834Z,562.37
2024-01-24T03:13:45.976Z,569.67
2024-01-24T03:16:14.037Z,999.90
2024-01-24T03:18:43.330Z,999.90
2024-01-24T03:21:16.699Z,999.90
2024-01-24T03:23:44.619Z,999.90
2024-01-24T03:26:14.320Z,575.47
2024-01-24T03:28:42.232Z,999.90
2024-01-24T03:31:10.463Z,999.90
2024-01-24T03:33:38.343Z,999.90
2024-01-24T03:36:07.950Z,999.90
2024-01-24T03:38:36.209Z,999.90
2024-01-24T03:41:04.046Z,999.90
2024-01-24T03:43:31.945Z,999.90
2024-01-24T03:46:01.094Z,999.90
2024-01-24T03:48:29.064Z,999.90
2024-01-24T03:50:56.933Z,999.90
2024-01-24T03:53:26.236Z,999.90
2024-01-24T03:55:54.090Z,999.90
2024-01-24T03:58:21.915Z,999.90
2024-01-24T04:00:51.723Z,999.90
2024-01-24T04:03:19.604Z,999.90
2024-01-24T04:05:47.711Z,999.90
2024-01-24T04:08:15.743Z,999.90
2024-01-24T04:10:44.992Z,999.90
2024-01-24T04:13:12.966Z,999.90
2024-01-24T04:15:44.067Z,999.90
2024-01-24T04:18:13.234Z,999.90
2024-01-24T04:20:41.172Z,999.90
2024-01-24T04:23:08.987Z,999.90
2024-01-24T04:25:36.816Z,732.07
2024-01-24T04:28:06.396Z,756.37
2024-01-24T04:30:34.393Z,765.17
2024-01-24T04:33:02.313Z,373.07
2024-01-24T04:35:30.162Z,755.67
2024-01-24T04:37:57.961Z,999.90
2024-01-24T04:40:25.874Z,999.90
2024-01-24T04:42:53.731Z,999.90
2024-01-24T04:45:22.926Z,999.90
2024-01-24T04:47:51.350Z,999.90
2024-01-24T04:50:19.336Z,746.67
2024-01-24T04:52:47.315Z,774.40
2024-01-24T04:55:15.215Z,310.93
2024-01-24T04:57:43.020Z,417.83
2024-01-24T05:00:13.306Z,445.57
2024-01-24T05:02:42.902Z,459.83
2024-01-24T05:05:11.887Z,375.67
2024-01-24T05:07:40.067Z,411.13
2024-01-24T05:10:08.837Z,480.37
2024-01-24T05:12:36.660Z,489.77
2024-01-24T05:15:04.900Z,444.07
2024-01-24T05:17:33.050Z,483.50
2024-01-24T05:20:03.023Z,498.33
2024-01-24T05:22:30.875Z,505.57
2024-01-24T05:24:58.726Z,496.50
2024-01-24T05:27:26.729Z,547.93
2024-01-24T05:29:54.517Z,542.70
2024-01-24T05:32:22.338Z,478.83
2024-01-24T05:34:50.686Z,482.90
2024-01-24T05:37:19.954Z,530.10
2024-01-24T05:39:48.443Z,549.33
2024-01-24T05:42:17.196Z,505.67
2024-01-24T05:44:45.044Z,564.13
2024-01-24T05:47:13.023Z,526.57
2024-01-24T05:49:40.959Z,613.87
2024-01-24T05:52:09.175Z,624.90
2024-01-24T05:54:38.717Z,648.83
2024-01-24T05:57:06.808Z,631.27
2024-01-24T05:59:34.622Z,642.47
2024-01-24T06:02:02.940Z,615.90
2024-01-24T06:04:30.948Z,652.77
2024-01-24T06:07:01.700Z,543.17
2024-01-24T06:09:29.821Z,594.03
2024-01-24T06:11:59.938Z,520.97
2024-01-24T06:14:27.792Z,630.77
2024-01-24T06:16:55.870Z,417.20
2024-01-24T06:19:23.819Z,561.30
2024-01-24T06:21:52.262Z,396.27
2024-01-24T06:24:20.757Z,371.13
2024-01-24T06:26:48.933Z,399.53
2024-01-24T06:30:14.599Z,319.60
2024-01-24T06:32:08.794Z,323.43
2024-01-24T06:34:36.675Z,332.73
2024-01-24T06:37:04.627Z,155.63
2024-01-24T06:39:32.678Z,128.13
2024-01-24T06:42:00.961Z,121.00
2024-01-24T06:44:30.327Z,157.47
2024-01-24T06:46:58.126Z,170.63
2024-01-24T06:49:26.125Z,147.63
2024-01-24T06:51:54.529Z,192.93
2024-01-24T06:54:22.438Z,119.53
2024-01-24T06:56:50.475Z,86.80
2024-01-24T06:59:19.492Z,30.47
2024-01-24T07:01:49.068Z,20.93
2024-01-24T07:04:17.488Z,13.57
2024-01-24T07:06:45.560Z,6.60
2024-01-24T07:09:13.808Z,3.60
2024-01-24T07:11:41.824Z,2.23
2024-01-24T07:14:09.737Z,1.50
2024-01-24T07:16:37.928Z,1.30
2024-01-24T07:19:07.718Z,1.40
2024-01-24T07:21:35.651Z,1.30
2024-01-24T07:24:04.080Z,1.60
2024-01-24T07:26:31.895Z,1.50
2024-01-24T07:29:00.685Z,166.43
2024-01-24T07:31:28.545Z,650.80
2024-01-24T07:33:56.450Z,242.87
2024-01-24T07:36:26.196Z,238.87
2024-01-24T07:38:54.334Z,999.90
2024-01-24T07:41:22.285Z,668.00
2024-01-24T07:43:50.364Z,1.10
2024-01-24T07:46:18.456Z,1.13
2024-01-24T07:48:46.652Z,1.13
2024-01-24T07:51:15.496Z,527.53
2024-01-24T07:53:45.183Z,848.73
2024-01-24T07:56:20.813Z,880.87
2024-01-24T07:58:53.930Z,377.03
2024-01-24T08:01:22.602Z,771.93
2024-01-24T08:03:51.854Z,726.17
2024-01-24T08:06:20.042Z,705.73
2024-01-24T08:08:49.880Z,709.03
2024-01-24T08:11:19.111Z,714.67
2024-01-24T08:13:47.529Z,662.80
2024-01-24T08:16:16.161Z,630.33
2024-01-24T08:18:44.025Z,581.03
2024-01-24T08:21:11.895Z,428.23
2024-01-24T08:23:46.898Z,184.73
2024-01-24T08:26:20.526Z,2.17
2024-01-24T08:28:49.092Z,122.87
2024-01-24T08:31:16.889Z,85.40
2024-01-24T08:33:47.698Z,232.17
2024-01-24T08:36:16.787Z,63.67
2024-01-24T08:38:44.864Z,92.37
2024-01-24T08:41:12.806Z,83.37
2024-01-24T08:43:42.044Z,80.93
2024-01-24T08:46:09.886Z,128.60
2024-01-24T08:48:37.706Z,102.67
2024-01-24T08:51:06.246Z,424.23
2024-01-24T08:53:34.062Z,220.17
2024-01-24T08:56:02.016Z,165.73
2024-01-24T08:58:29.891Z,62.20
2024-01-24T09:01:00.329Z,24.13
2024-01-24T09:03:28.893Z,181.10
2024-01-24T09:05:56.801Z,140.27
2024-01-24T09:08:26.259Z,87.07
2024-01-24T09:10:54.886Z,55.63
2024-01-24T09:13:24.068Z,6.87
2024-01-24T09:15:52.658Z,4.10
2024-01-24T09:18:22.271Z,17.97
2024-01-24T09:20:50.747Z,24.20
2024-01-24T09:23:18.520Z,1.33
2024-01-24T09:25:46.530Z,2.40
2024-01-24T09:28:14.483Z,1.47
2024-01-24T09:30:42.398Z,2.37
2024-01-24T09:33:10.825Z,62.73
2024-01-24T09:35:41.649Z,1.93
2024-01-24T09:38:09.632Z,6.27
2024-01-24T09:40:37.708Z,3.30
2024-01-24T09:43:06.690Z,77.77
2024-01-24T09:45:39.398Z,3.33
2024-01-24T09:48:09.500Z,16.07
2024-01-24T09:50:37.675Z,54.83
2024-01-24T09:53:08.811Z,14.23
2024-01-24T09:55:36.987Z,24.70
2024-01-24T09:58:08.053Z,24.43
2024-01-24T10:00:38.252Z,84.30
2024-01-24T10:03:06.637Z,34.80
2024-01-24T10:05:38.084Z,60.00
2024-01-24T10:08:07.826Z,11.43
2024-01-24T10:10:35.645Z,23.37
2024-01-24T10:13:05.346Z,8.27
2024-01-24T10:15:33.434Z,4.70
2024-01-24T10:18:02.162Z,1.70
2024-01-24T10:20:31.532Z,2.10
2024-01-24T10:22:59.426Z,33.17
2024-01-24T10:25:28.604Z,1.57
2024-01-24T10:27:56.504Z,1.70
2024-01-24T10:30:25.880Z,1.80
2024-01-24T10:32:54.184Z,1.33
2024-01-24T10:35:22.213Z,7.10
2024-01-24T10:37:50.453Z,1.60
2024-01-24T10:40:19.559Z,29.73
2024-01-24T10:42:54.776Z,0.90
2024-01-24T10:45:25.150Z,1.10
2024-01-24T10:47:55.179Z,2.43
2024-01-24T10:50:23.249Z,1.60
2024-01-24T10:52:54.855Z,1.10
2024-01-24T10:55:23.616Z,0.97
2024-01-24T10:57:54.355Z,1.30
2024-01-24T11:00:23.933Z,1.40
2024-01-24T11:02:53.204Z,1.37
2024-01-24T11:05:27.629Z,1.00
2024-01-24T11:08:00.229Z,1.10
2024-01-24T11:10:32.617Z,1.10
2024-01-24T11:13:03.255Z,4.50
2024-01-24T11:15:32.187Z,1.20
2024-01-24T11:18:22.961Z,1.27
2024-01-24T11:20:54.088Z,1.17
2024-01-24T11:23:39.965Z,1.20
2024-01-24T11:26:08.030Z,1.30
2024-01-24T11:28:37.732Z,1.20
2024-01-24T11:31:05.818Z,1.40
2024-01-24T11:33:34.016Z,1.07
2024-01-24T11:36:04.000Z,1.00
2024-01-24T11:38:37.086Z,1.40
2024-01-24T11:41:22.993Z,0.93
2024-01-24T11:43:52.526Z,0.97
2024-01-24T11:46:21.710Z,1.10
2024-01-24T11:48:49.934Z,0.80
2024-01-24T11:51:19.118Z,1.00
2024-01-24T11:53:47.163Z,0.80
2024-01-24T11:56:16.514Z,0.70
2024-01-24T11:58:44.749Z,1.10
2024-01-24T12:01:14.494Z,1.57
2024-01-24T12:03:48.514Z,0.90
2024-01-24T12:06:17.206Z,3.17
2024-01-24T12:08:49.606Z,1.20
2024-01-24T12:11:18.818Z,1.00
2024-01-24T12:13:47.523Z,0.90
2024-01-24T12:16:16.828Z,2.10
2024-01-24T12:18:45.191Z,2.67
2024-01-24T12:21:13.480Z,3.60
2024-01-24T12:23:41.863Z,2.20
2024-01-24T12:26:09.834Z,2.67
2024-01-24T12:28:37.953Z,2.60
2024-01-24T12:31:07.247Z,1.77
2024-01-24T12:33:37.766Z,1.67
2024-01-24T12:36:07.207Z,5.50
2024-01-24T12:38:36.929Z,1.70
2024-01-24T12:41:06.125Z,1.43
2024-01-24T12:43:34.566Z,1.20
2024-01-24T12:46:07.332Z,1.40
2024-01-24T12:48:38.033Z,3.27
2024-01-24T12:51:06.442Z,1.10
2024-01-24T12:53:34.797Z,8.63
2024-01-24T12:56:02.880Z,77.33
2024-01-24T12:58:30.876Z,57.93
2024-01-24T13:00:58.851Z,216.30
2024-01-24T13:03:29.437Z,784.60
2024-01-24T13:05:59.845Z,999.90
2024-01-24T13:08:27.918Z,999.90
2024-01-24T13:10:56.777Z,999.90
2024-01-24T13:13:25.170Z,999.90
2024-01-24T13:15:55.085Z,999.90
2024-01-24T13:18:23.816Z,999.90
2024-01-24T13:20:51.804Z,999.90
2024-01-24T13:23:21.835Z,999.90
2024-01-24T13:25:50.520Z,999.90
2024-01-24T13:28:23.068Z,999.90
2024-01-24T13:30:52.718Z,999.90
2024-01-24T13:33:20.898Z,999.90
2024-01-24T13:35:49.327Z,999.90
2024-01-24T13:38:17.883Z,999.90
2024-01-24T13:40:47.344Z,999.90
2024-01-24T13:43:15.221Z,999.90
2024-01-24T13:45:43.696Z,999.90
2024-01-24T13:48:11.765Z,999.90
2024-01-24T13:50:39.837Z,999.90
2024-01-24T13:53:08.067Z,999.90
2024-01-24T13:55:35.963Z,999.90
2024-01-24T13:58:05.718Z,999.90
2024-01-24T14:00:33.810Z,999.90
2024-01-24T14:03:01.864Z,999.90
2024-01-24T14:05:30.616Z,999.90
2024-01-24T14:07:58.643Z,999.90
2024-01-24T14:10:26.626Z,999.90
2024-01-24T14:12:54.559Z,999.90
2024-01-24T14:15:32.979Z,999.90
2024-01-24T14:18:03.411Z,999.90
2024-01-24T14:20:31.268Z,999.90
2024-01-24T14:22:59.062Z,999.90
2024-01-24T14:25:26.903Z,999.90
2024-01-24T14:27:55.492Z,999.90
2024-01-24T14:30:26.001Z,999.90
2024-01-24T14:32:54.088Z,999.90
2024-01-24T14:35:24.083Z,766.50
2024-01-24T14:37:52.528Z,767.93
2024-01-24T14:40:20.779Z,662.80
2024-01-24T14:42:49.090Z,552.73
2024-01-24T14:45:17.143Z,999.90
2024-01-24T14:47:46.454Z,777.37
2024-01-24T14:50:14.562Z,621.97
2024-01-24T14:52:42.484Z,582.47
2024-01-24T14:55:11.281Z,610.83
2024-01-24T14:57:39.392Z,686.43
2024-01-24T15:00:11.333Z,631.50
2024-01-24T15:02:39.721Z,554.77
2024-01-24T15:05:10.223Z,505.20
2024-01-24T15:07:38.909Z,318.97
2024-01-24T15:10:08.886Z,304.40
2024-01-24T15:12:37.205Z,296.90
2024-01-24T15:15:05.640Z,737.77
2024-01-24T15:17:33.824Z,323.83
2024-01-24T15:20:03.064Z,462.20
2024-01-24T15:22:33.070Z,362.90
2024-01-24T15:25:01.592Z,366.33
2024-01-24T15:27:30.742Z,570.80
2024-01-24T15:29:59.434Z,562.73
2024-01-24T15:32:28.084Z,425.23
2024-01-24T15:34:56.302Z,475.10
2024-01-24T15:37:24.176Z,461.40
2024-01-24T15:39:54.583Z,365.50
2024-01-24T15:42:23.024Z,269.60
2024-01-24T15:44:51.584Z,452.13
2024-01-24T15:47:20.039Z,466.13
2024-01-24T15:49:48.021Z,301.37
2024-01-24T15:52:18.711Z,365.53
2024-01-24T15:54:48.210Z,411.43
2024-01-24T15:57:17.502Z,347.17
2024-01-24T15:59:45.740Z,600.23
2024-01-24T16:02:14.361Z,769.87
2024-01-24T16:04:42.734Z,576.80
2024-01-24T16:07:11.027Z,999.90
2024-01-24T16:09:39.665Z,999.90
2024-01-24T16:12:09.439Z,999.90
2024-01-24T16:14:38.740Z,999.90
2024-01-24T16:17:07.611Z,1.50
2024-01-24T16:19:36.527Z,2.90
2024-01-24T16:22:05.322Z,10.97
2024-01-24T16:24:34.253Z,1.90
2024-01-24T16:27:02.154Z,1.80
2024-01-24T16:29:30.146Z,2.80
2024-01-24T16:31:59.814Z,3.20
2024-01-24T16:34:27.678Z,6.13
2024-01-24T16:36:55.467Z,4.43
2024-01-24T16:39:23.371Z,5.57
2024-01-24T16:41:51.495Z,6.13
2024-01-24T16:44:22.224Z,687.37
2024-01-24T16:46:50.339Z,999.90
2024-01-24T16:49:19.609Z,22.73
2024-01-24T16:51:48.620Z,22.70
2024-01-24T16:54:16.610Z,999.90
2024-01-24T16:59:12.801Z,999.90
2024-01-24T17:01:40.626Z,2.17
2024-01-24T17:04:08.863Z,1.20
2024-01-24T17:06:40.586Z,1.27
2024-01-24T17:09:09.283Z,1.53
2024-01-24T17:11:37.065Z,1.10
2024-01-24T17:14:04.865Z,1.10
2024-01-24T17:16:32.682Z,1.00
2024-01-24T17:19:00.549Z,1.30
2024-01-24T17:21:28.616Z,1.33
2024-01-24T17:23:57.807Z,1.27
2024-01-24T17:26:25.561Z,1.37
2024-01-24T17:28:55.231Z,1.30
2024-01-24T17:31:24.430Z,1.43
2024-01-24T17:33:53.311Z,1.40
2024-01-24T17:36:21.127Z,1.30
2024-01-24T17:38:49.571Z,1.70
2024-01-24T17:41:19.299Z,1.20
2024-01-24T17:43:47.332Z,1.23
2024-01-24T17:46:15.157Z,2.40
2024-01-24T17:48:44.009Z,1.60
2024-01-24T17:51:12.769Z,2.80
2024-01-24T17:53:41.009Z,2.67
2024-01-24T17:56:08.858Z,2.30
2024-01-24T17:58:38.030Z,2.00
2024-01-24T18:01:06.547Z,1.40
2024-01-24T18:03:35.993Z,1.90
2024-01-24T18:06:04.101Z,2.40
2024-01-24T18:08:32.004Z,2.77
2024-01-24T18:10:59.787Z,3.03
2024-01-24T18:13:29.044Z,6.80
2024-01-24T18:15:58.467Z,58.50
2024-01-24T18:18:27.575Z,34.83
2024-01-24T18:20:56.032Z,5.40
2024-01-24T18:23:23.933Z,8.03
2024-01-24T18:25:52.612Z,9.03
2024-01-24T18:28:20.438Z,20.77
2024-01-24T18:30:48.470Z,3.67
2024-01-24T18:33:17.793Z,3.37
2024-01-24T18:35:45.896Z,4.20
2024-01-24T18:38:13.853Z,4.13
2024-01-24T18:40:41.645Z,2.50
2024-01-24T18:43:10.197Z,2.63
2024-01-24T18:45:38.283Z,2.33
2024-01-24T18:48:08.385Z,2.40
2024-01-24T18:50:37.681Z,2.77
2024-01-24T18:53:08.440Z,2.70
2024-01-24T18:55:37.264Z,3.13
2024-01-24T18:58:05.853Z,2.43
2024-01-24T19:00:34.088Z,2.50
2024-01-24T19:03:02.167Z,5.40
2024-01-24T19:05:37.100Z,2.50
2024-01-24T19:08:10.701Z,2.70
2024-01-24T19:10:39.070Z,2.77
2024-01-24T19:13:07.088Z,3.60
2024-01-24T19:15:35.362Z,2.80
2024-01-24T19:18:10.777Z,3.03
2024-01-24T19:20:43.783Z,3.37
2024-01-24T19:23:13.316Z,4.30
2024-01-24T19:25:41.301Z,3.60
2024-01-24T19:28:10.240Z,4.00
2024-01-24T19:30:38.759Z,2.80
2024-01-24T19:33:07.084Z,2.83
2024-01-24T19:35:35.098Z,3.03
2024-01-24T19:38:03.017Z,3.90
2024-01-24T19:40:33.243Z,3.53
2024-01-24T19:43:01.786Z,6.53
2024-01-24T19:45:29.844Z,3.40
2024-01-24T19:47:58.026Z,4.20
2024-01-24T19:50:25.927Z,3.40
2024-01-24T19:52:56.090Z,4.23
2024-01-24T19:55:25.747Z,5.70
2024-01-24T19:57:56.249Z,4.60
2024-01-24T20:00:24.439Z,4.67
2024-01-24T20:02:52.513Z,4.57
2024-01-24T20:05:20.479Z,3.80
2024-01-24T20:07:49.229Z,3.20
2024-01-24T20:10:19.506Z,2.80
2024-01-24T20:12:47.350Z,3.23
2024-01-24T20:15:16.764Z,3.70
2024-01-24T20:17:46.756Z,3.67
2024-01-24T20:20:16.114Z,3.47
2024-01-24T20:22:44.064Z,3.40
2024-01-24T20:25:11.966Z,3.93
2024-01-24T20:27:39.912Z,4.27
2024-01-24T20:30:08.835Z,3.60
2024-01-24T20:32:42.924Z,4.00
2024-01-24T20:35:16.979Z,3.00
2024-01-24T20:37:44.956Z,3.37
2024-01-24T20:40:12.326Z,3.53
2024-01-24T20:42:40.257Z,3.60
2024-01-24T20:45:08.599Z,3.20
2024-01-24T20:47:37.835Z,3.43
2024-01-24T20:50:06.478Z,4.07
2024-01-24T20:52:34.299Z,4.27
2024-01-24T20:55:02.206Z,3.20
2024-01-24T20:57:30.353Z,3.30
2024-01-24T20:59:58.429Z,3.70
2024-01-24T21:02:26.448Z,3.47
2024-01-24T21:04:56.011Z,3.53
2024-01-24T21:07:23.985Z,3.70
2024-01-24T21:09:53.024Z,5.70
2024-01-24T21:12:20.896Z,4.90
2024-01-24T21:14:49.374Z,3.70
2024-01-24T21:17:18.204Z,4.40
2024-01-24T21:19:46.169Z,5.80
2024-01-24T21:22:15.601Z,5.80
2024-01-24T21:24:43.757Z,4.80
2024-01-24T21:27:11.926Z,7.43
2024-01-24T21:29:39.740Z,13.50
2024-01-24T21:32:07.816Z,10.10
2024-01-24T21:34:35.794Z,9.43
2024-01-24T21:37:03.806Z,8.40
2024-01-24T21:39:33.079Z,7.50
2024-01-24T21:42:00.926Z,12.43
2024-01-24T21:44:28.960Z,10.20
2024-01-24T21:46:56.776Z,9.73
2024-01-24T21:49:24.601Z,10.07
2024-01-24T21:51:52.742Z,36.10
2024-01-24T21:54:20.718Z,8.00
2024-01-24T21:56:50.764Z,12.20
2024-01-24T21:59:18.698Z,15.40
2024-01-24T22:01:47.092Z,9.00
2024-01-24T22:04:15.108Z,12.30
2024-01-24T22:06:43.065Z,12.20
2024-01-24T22:09:14.876Z,13.20
2024-01-24T22:11:42.942Z,118.43
2024-01-24T22:14:12.181Z,138.57
2024-01-24T22:16:40.122Z,255.87
2024-01-24T22:19:07.907Z,251.87
2024-01-24T22:21:35.747Z,22.60
2024-01-24T22:24:03.786Z,261.20
2024-01-24T22:26:31.585Z,268.03
2024-01-24T22:28:59.397Z,255.00
2024-01-24T22:31:30.340Z,267.63
2024-01-24T22:33:58.304Z,266.37
2024-01-24T22:36:26.134Z,250.07
2024-01-24T22:38:54.685Z,255.67
2024-01-24T22:41:22.486Z,255.63
2024-01-24T22:43:53.873Z,251.27
2024-01-24T22:46:23.041Z,234.03
2024-01-24T22:48:52.745Z,238.00
2024-01-24T22:51:19.717Z,233.10
2024-01-24T22:53:48.223Z,236.37
2024-01-24T22:56:16.045Z,158.87
2024-01-24T22:58:43.867Z,151.50
2024-01-24T23:01:12.132Z,125.37
2024-01-24T23:03:40.131Z,11.90
2024-01-24T23:06:09.382Z,12.80
2024-01-24T23:08:38.746Z,18.70
2024-01-24T23:11:06.675Z,9.40
2024-01-24T23:13:34.599Z,24.27
2024-01-24T23:16:02.518Z,17.90
2024-01-24T23:18:30.360Z,247.30
2024-01-24T23:20:58.206Z,246.20
2024-01-24T23:23:27.342Z,268.37
2024-01-24T23:25:55.235Z,132.03
2024-01-24T23:28:23.263Z,209.10
2024-01-24T23:30:51.404Z,185.40
2024-01-24T23:33:19.536Z,172.97
2024-01-24T23:35:47.728Z,96.73
2024-01-24T23:38:15.624Z,95.83
2024-01-24T23:40:44.884Z,107.00
2024-01-24T23:43:12.813Z,113.53
2024-01-24T23:45:40.715Z,111.93
2024-01-24T23:48:09.202Z,127.53
2024-01-24T23:50:37.265Z,240.23
2024-01-24T23:53:05.830Z,231.43
2024-01-24T23:55:33.801Z,188.43
2024-01-24T23:58:02.970Z,122.10
